Check out our new PWSWeather beta!
PWSweather.com
Personal Weather Stations
Station Observations
KNCGREEN1000
Bell Orchard Drive, Greensboro, NC 27455

Bell Orchard DriveGreensboro, NC 27455

Lat: 36.132, Lon: -79.8

Elevation: 876

Station Type: Acurite Atlas

Http://www.gilhutcheson.com

High Low Average
Temperature 52.1°F11.2°C 45.4°F7.4°C 47.9°F8.8°C
Dew Point 51.0°F10.6°C 41.9°F5.5°C 47.3°F8.5°C
Winds 7.0 mph 11.3 kmh Calm Calm 2.0 mph S3.2 kmh S
Wind Gusts -- -- --
Humidity 99% 85% 98%
Pressure 29.98 in1015.2 mb 29.53 in1000.0 mb -
Precipitation 0.70 in17.8 mm - -
Hour Temp Dew Point Humidity Winds Wind Gusts Pressure Precip Precip Rate Daily Precip Total
12:04 AM 46.0°F7.8°C 45.5°F7.5°C 98% 1.0 mph SSE1.6 kmh SSE -- 29.98 in1015.2 mb 0.03 in0.8 mm 0.45 in11.4 mm 0.01 in0.3 mm
12:09 AM 45.9°F7.7°C 45.3°F7.4°C 98% Calm Calm -- 29.98 in1015.2 mb 0.03 in0.8 mm 0.00 in0.0 mm 0.01 in0.3 mm
12:14 AM 46.0°F7.8°C 45.5°F7.5°C 98% 1.0 mph SSE1.6 kmh SSE -- 29.97 in1014.9 mb 0.03 in0.8 mm 0.00 in0.0 mm 0.01 in0.3 mm
12:19 AM 45.9°F7.7°C 45.3°F7.4°C 98% 1.0 mph S1.6 kmh S -- 29.98 in1015.2 mb 0.03 in0.8 mm 0.00 in0.0 mm 0.01 in0.3 mm
12:24 AM 45.9°F7.7°C 45.3°F7.4°C 98% 2.0 mph S3.2 kmh S -- 29.98 in1015.2 mb 0.03 in0.8 mm 0.00 in0.0 mm 0.01 in0.3 mm
12:29 AM 46.0°F7.8°C 45.5°F7.5°C 98% 2.0 mph S3.2 kmh S -- 29.98 in1015.2 mb 0.03 in0.8 mm 0.00 in0.0 mm 0.02 in0.5 mm
12:34 AM 45.9°F7.7°C 45.3°F7.4°C 98% 3.0 mph SSW4.8 kmh SSW -- 29.98 in1015.2 mb 0.04 in1.0 mm 0.12 in3.0 mm 0.03 in0.8 mm
12:39 AM 46.0°F7.8°C 45.5°F7.5°C 98% 2.0 mph SSE3.2 kmh SSE -- 29.98 in1015.2 mb 0.04 in1.0 mm 0.00 in0.0 mm 0.04 in1.0 mm
12:44 AM 45.9°F7.7°C 45.3°F7.4°C 98% 2.0 mph S3.2 kmh S -- 29.96 in1014.6 mb 0.05 in1.3 mm 0.12 in3.0 mm 0.05 in1.3 mm
12:49 AM 45.9°F7.7°C 45.3°F7.4°C 98% 1.0 mph SSE1.6 kmh SSE -- 29.95 in1014.2 mb 0.04 in1.0 mm 0.00 in0.0 mm 0.05 in1.3 mm
12:54 AM 46.0°F7.8°C 45.5°F7.5°C 98% 2.0 mph S3.2 kmh S -- 29.95 in1014.2 mb 0.05 in1.3 mm 0.12 in3.0 mm 0.06 in1.5 mm
12:59 AM 45.9°F7.7°C 45.3°F7.4°C 98% 2.0 mph SSE3.2 kmh SSE -- 29.94 in1013.9 mb 0.06 in1.5 mm 0.12 in3.0 mm 0.07 in1.8 mm
01:04 AM 46.0°F7.8°C 45.5°F7.5°C 98% Calm Calm -- 29.93 in1013.5 mb 0.07 in1.8 mm 0.01 in0.3 mm 0.08 in2.0 mm
01:09 AM 45.9°F7.7°C 45.3°F7.4°C 98% 1.0 mph SSE1.6 kmh SSE -- 29.93 in1013.5 mb 0.08 in2.0 mm 0.12 in3.0 mm 0.09 in2.3 mm
01:14 AM 45.8°F7.7°C 45.3°F7.4°C 98% 1.0 mph SSE1.6 kmh SSE -- 29.93 in1013.5 mb 0.09 in2.3 mm 0.12 in3.0 mm 0.10 in2.5 mm
01:19 AM 45.8°F7.7°C 45.3°F7.4°C 98% 1.0 mph SE1.6 kmh SE -- 29.92 in1013.2 mb 0.08 in2.0 mm 0.00 in0.0 mm 0.10 in2.5 mm
01:24 AM 45.9°F7.7°C 45.3°F7.4°C 98% 1.0 mph S1.6 kmh S -- 29.93 in1013.5 mb 0.08 in2.0 mm 0.00 in0.0 mm 0.10 in2.5 mm
01:29 AM 45.8°F7.7°C 45.3°F7.4°C 98% 1.0 mph S1.6 kmh S -- 29.92 in1013.2 mb 0.07 in1.8 mm 0.00 in0.0 mm 0.11 in2.8 mm
01:34 AM 45.9°F7.7°C 45.3°F7.4°C 98% 1.0 mph SSE1.6 kmh SSE -- 29.93 in1013.5 mb 0.07 in1.8 mm 0.00 in0.0 mm 0.11 in2.8 mm
01:39 AM 46.0°F7.8°C 45.5°F7.5°C 98% 1.0 mph S1.6 kmh S -- 29.91 in1012.9 mb 0.07 in1.8 mm 0.00 in0.0 mm 0.12 in3.0 mm
01:44 AM 46.0°F7.8°C 45.5°F7.5°C 98% 1.0 mph SSE1.6 kmh SSE -- 29.91 in1012.9 mb 0.07 in1.8 mm 0.00 in0.0 mm 0.12 in3.0 mm
01:49 AM 45.9°F7.7°C 45.3°F7.4°C 98% 1.0 mph S1.6 kmh S -- 29.90 in1012.5 mb 0.06 in1.5 mm 0.00 in0.0 mm 0.12 in3.0 mm
01:54 AM 46.0°F7.8°C 45.5°F7.5°C 98% 4.0 mph E6.4 kmh E -- 29.89 in1012.2 mb 0.06 in1.5 mm 0.00 in0.0 mm 0.12 in3.0 mm
01:59 AM 46.0°F7.8°C 45.5°F7.5°C 98% 2.0 mph SSE3.2 kmh SSE -- 29.89 in1012.2 mb 0.04 in1.0 mm 0.00 in0.0 mm 0.13 in3.3 mm
02:04 AM 46.1°F7.8°C 45.5°F7.5°C 98% 2.0 mph SSE3.2 kmh SSE -- 29.88 in1011.9 mb 0.04 in1.0 mm 0.00 in0.0 mm 0.13 in3.3 mm
02:09 AM 46.1°F7.8°C 45.5°F7.5°C 98% 2.0 mph S3.2 kmh S -- 29.90 in1012.5 mb 0.03 in0.8 mm 0.00 in0.0 mm 0.13 in3.3 mm
02:14 AM 46.1°F7.8°C 45.5°F7.5°C 98% 1.0 mph SSE1.6 kmh SSE -- 29.89 in1012.2 mb 0.03 in0.8 mm 0.00 in0.0 mm 0.13 in3.3 mm
02:19 AM 46.1°F7.8°C 45.5°F7.5°C 98% 2.0 mph SSE3.2 kmh SSE -- 29.88 in1011.9 mb 0.02 in0.5 mm 0.00 in0.0 mm 0.13 in3.3 mm
02:24 AM 46.0°F7.8°C 45.5°F7.5°C 98% 2.0 mph SSE3.2 kmh SSE -- 29.87 in1011.5 mb 0.02 in0.5 mm 0.00 in0.0 mm 0.13 in3.3 mm
02:29 AM 46.1°F7.8°C 45.5°F7.5°C 98% 2.0 mph S3.2 kmh S -- 29.87 in1011.5 mb 0.01 in0.3 mm 0.00 in0.0 mm 0.13 in3.3 mm
02:34 AM 46.2°F7.9°C 45.7°F7.6°C 98% Calm Calm -- 29.88 in1011.9 mb 0.01 in0.3 mm 0.00 in0.0 mm 0.13 in3.3 mm
02:39 AM 46.2°F7.9°C 45.7°F7.6°C 98% 1.0 mph S1.6 kmh S -- 29.87 in1011.5 mb 0.01 in0.3 mm 0.00 in0.0 mm 0.13 in3.3 mm
02:44 AM 46.3°F7.9°C 45.7°F7.6°C 98% 1.0 mph SSE1.6 kmh SSE -- 29.87 in1011.5 mb 0.01 in0.3 mm 0.00 in0.0 mm 0.13 in3.3 mm
02:49 AM 46.2°F7.9°C 45.7°F7.6°C 98% 1.0 mph SSE1.6 kmh SSE -- 29.87 in1011.5 mb 0.00 in0.0 mm 0.00 in0.0 mm 0.13 in3.3 mm
02:54 AM 46.4°F8.0°C 45.9°F7.7°C 98% 3.0 mph SE4.8 kmh SE -- 29.85 in1010.8 mb 0.00 in0.0 mm 0.00 in0.0 mm 0.13 in3.3 mm
02:59 AM 46.4°F8.0°C 45.9°F7.7°C 98% 2.0 mph SE3.2 kmh SE -- 29.86 in1011.2 mb 0.00 in0.0 mm 0.00 in0.0 mm 0.13 in3.3 mm
03:04 AM 46.4°F8.0°C 45.9°F7.7°C 98% Calm Calm -- 29.86 in1011.2 mb 0.00 in0.0 mm 0.00 in0.0 mm 0.13 in3.3 mm
03:09 AM 46.5°F8.1°C 46.0°F7.8°C 98% Calm Calm -- 29.85 in1010.8 mb 0.00 in0.0 mm 0.00 in0.0 mm 0.13 in3.3 mm
03:14 AM 46.4°F8.0°C 45.9°F7.7°C 98% Calm Calm -- 29.85 in1010.8 mb 0.00 in0.0 mm 0.00 in0.0 mm 0.13 in3.3 mm
03:19 AM 46.5°F8.1°C 46.0°F7.8°C 98% Calm Calm -- 29.87 in1011.5 mb 0.00 in0.0 mm 0.00 in0.0 mm 0.13 in3.3 mm
03:24 AM 46.5°F8.1°C 46.0°F7.8°C 98% 1.0 mph SSE1.6 kmh SSE -- 29.87 in1011.5 mb 0.00 in0.0 mm 0.00 in0.0 mm 0.13 in3.3 mm
03:29 AM 46.6°F8.1°C 46.0°F7.8°C 98% Calm Calm -- 29.86 in1011.2 mb 0.00 in0.0 mm 0.00 in0.0 mm 0.13 in3.3 mm
03:34 AM 46.6°F8.1°C 46.0°F7.8°C 98% Calm Calm -- 29.86 in1011.2 mb 0.00 in0.0 mm 0.00 in0.0 mm 0.13 in3.3 mm
03:39 AM 46.7°F8.2°C 46.5°F8.1°C 99% Calm Calm -- 29.85 in1010.8 mb 0.01 in0.3 mm 0.12 in3.0 mm 0.14 in3.6 mm
03:44 AM 46.7°F8.2°C 46.5°F8.1°C 99% Calm Calm -- 29.85 in1010.8 mb 0.01 in0.3 mm 0.00 in0.0 mm 0.14 in3.6 mm
03:49 AM 46.7°F8.2°C 46.5°F8.1°C 99% Calm Calm -- 29.86 in1011.2 mb 0.01 in0.3 mm 0.00 in0.0 mm 0.14 in3.6 mm
03:54 AM 46.7°F8.2°C 46.5°F8.1°C 99% 1.0 mph ESE1.6 kmh ESE -- 29.86 in1011.2 mb 0.01 in0.3 mm 0.00 in0.0 mm 0.14 in3.6 mm
03:59 AM 46.7°F8.2°C 46.5°F8.1°C 99% Calm Calm -- 29.86 in1011.2 mb 0.01 in0.3 mm 0.00 in0.0 mm 0.14 in3.6 mm
04:04 AM 46.7°F8.2°C 46.5°F8.1°C 99% Calm Calm -- 29.86 in1011.2 mb 0.02 in0.5 mm 0.01 in0.3 mm 0.15 in3.8 mm
04:09 AM 46.7°F8.2°C 46.5°F8.1°C 99% Calm Calm -- 29.86 in1011.2 mb 0.02 in0.5 mm 0.00 in0.0 mm 0.15 in3.8 mm
04:14 AM 46.8°F8.2°C 46.5°F8.1°C 99% Calm Calm -- 29.86 in1011.2 mb 0.02 in0.5 mm 0.00 in0.0 mm 0.15 in3.8 mm
04:19 AM 46.9°F8.3°C 46.7°F8.2°C 99% 1.0 mph S1.6 kmh S -- 29.86 in1011.2 mb 0.03 in0.8 mm 0.12 in3.0 mm 0.16 in4.1 mm
04:24 AM 47.0°F8.3°C 46.7°F8.2°C 99% 1.0 mph SSE1.6 kmh SSE -- 29.85 in1010.8 mb 0.04 in1.0 mm 0.12 in3.0 mm 0.17 in4.3 mm
04:29 AM 47.0°F8.3°C 46.7°F8.2°C 99% Calm Calm -- 29.84 in1010.5 mb 0.03 in0.8 mm 0.00 in0.0 mm 0.17 in4.3 mm
04:34 AM 47.1°F8.4°C 46.8°F8.2°C 99% 2.0 mph SSE3.2 kmh SSE -- 29.83 in1010.2 mb 0.04 in1.0 mm 0.12 in3.0 mm 0.18 in4.6 mm
04:39 AM 47.1°F8.4°C 46.8°F8.2°C 99% 1.0 mph S1.6 kmh S -- 29.84 in1010.5 mb 0.04 in1.0 mm 0.00 in0.0 mm 0.18 in4.6 mm
04:44 AM 47.1°F8.4°C 46.8°F8.2°C 99% 2.0 mph SSE3.2 kmh SSE -- 29.83 in1010.2 mb 0.05 in1.3 mm 0.12 in3.0 mm 0.19 in4.8 mm
04:49 AM 47.1°F8.4°C 46.8°F8.2°C 99% Calm Calm -- 29.82 in1009.8 mb 0.05 in1.3 mm 0.00 in0.0 mm 0.19 in4.8 mm
04:54 AM 47.3°F8.5°C 47.0°F8.3°C 99% 2.0 mph SSE3.2 kmh SSE -- 29.82 in1009.8 mb 0.05 in1.3 mm 0.00 in0.0 mm 0.19 in4.8 mm
04:59 AM 47.2°F8.4°C 46.8°F8.2°C 99% 3.0 mph SSE4.8 kmh SSE -- 29.82 in1009.8 mb 0.05 in1.3 mm 0.00 in0.0 mm 0.20 in5.1 mm
05:04 AM 47.2°F8.4°C 46.8°F8.2°C 99% 1.0 mph SSE1.6 kmh SSE -- 29.81 in1009.5 mb 0.05 in1.3 mm 0.00 in0.0 mm 0.20 in5.1 mm
05:09 AM 47.2°F8.4°C 46.8°F8.2°C 99% 3.0 mph SE4.8 kmh SE -- 29.81 in1009.5 mb 0.05 in1.3 mm 0.00 in0.0 mm 0.21 in5.3 mm
05:14 AM 47.1°F8.4°C 46.8°F8.2°C 99% 3.0 mph SSE4.8 kmh SSE -- 29.80 in1009.1 mb 0.05 in1.3 mm 0.00 in0.0 mm 0.21 in5.3 mm
05:19 AM 47.1°F8.4°C 46.8°F8.2°C 99% 1.0 mph ESE1.6 kmh ESE -- 29.80 in1009.1 mb 0.05 in1.3 mm 0.00 in0.0 mm 0.22 in5.6 mm
05:24 AM 47.1°F8.4°C 46.8°F8.2°C 99% 2.0 mph S3.2 kmh S -- 29.80 in1009.1 mb 0.06 in1.5 mm 0.12 in3.0 mm 0.23 in5.8 mm
05:29 AM 47.0°F8.3°C 46.7°F8.2°C 99% 2.0 mph SSE3.2 kmh SSE -- 29.81 in1009.5 mb 0.06 in1.5 mm 0.00 in0.0 mm 0.24 in6.1 mm
05:34 AM 47.1°F8.4°C 46.8°F8.2°C 99% 3.0 mph SE4.8 kmh SE -- 29.81 in1009.5 mb 0.08 in2.0 mm 0.24 in6.1 mm 0.26 in6.6 mm
05:39 AM 47.0°F8.3°C 46.7°F8.2°C 99% Calm Calm -- 29.78 in1008.5 mb 0.08 in2.0 mm 0.00 in0.0 mm 0.27 in6.9 mm
05:44 AM 46.9°F8.3°C 46.7°F8.2°C 99% Calm Calm -- 29.78 in1008.5 mb 0.09 in2.3 mm 0.12 in3.0 mm 0.28 in7.1 mm
05:49 AM 46.9°F8.3°C 46.7°F8.2°C 99% 3.0 mph SE4.8 kmh SE -- 29.78 in1008.5 mb 0.08 in2.0 mm 0.00 in0.0 mm 0.28 in7.1 mm
05:54 AM 47.0°F8.3°C 46.7°F8.2°C 99% 1.0 mph SSE1.6 kmh SSE -- 29.78 in1008.5 mb 0.08 in2.0 mm 0.00 in0.0 mm 0.28 in7.1 mm
05:59 AM 47.0°F8.3°C 46.7°F8.2°C 99% 2.0 mph S3.2 kmh S -- 29.78 in1008.5 mb 0.08 in2.0 mm 0.00 in0.0 mm 0.29 in7.4 mm
06:04 AM 46.8°F8.2°C 46.5°F8.1°C 99% 1.0 mph SE1.6 kmh SE -- 29.78 in1008.5 mb 0.08 in2.0 mm 0.00 in0.0 mm 0.29 in7.4 mm
06:09 AM 46.9°F8.3°C 46.7°F8.2°C 99% 1.0 mph SE1.6 kmh SE -- 29.78 in1008.5 mb 0.07 in1.8 mm 0.00 in0.0 mm 0.29 in7.4 mm
06:14 AM 46.9°F8.3°C 46.7°F8.2°C 99% 2.0 mph SSE3.2 kmh SSE -- 29.78 in1008.5 mb 0.07 in1.8 mm 0.00 in0.0 mm 0.29 in7.4 mm
06:19 AM 46.9°F8.3°C 46.7°F8.2°C 99% 2.0 mph SE3.2 kmh SE -- 29.78 in1008.5 mb 0.08 in2.0 mm 0.12 in3.0 mm 0.32 in8.1 mm
06:24 AM 46.9°F8.3°C 46.7°F8.2°C 99% 2.0 mph SSE3.2 kmh SSE -- 29.75 in1007.5 mb 0.10 in2.5 mm 0.24 in6.1 mm 0.34 in8.6 mm
06:29 AM 46.8°F8.2°C 46.5°F8.1°C 99% 1.0 mph SE1.6 kmh SE -- 29.75 in1007.5 mb 0.09 in2.3 mm 0.00 in0.0 mm 0.36 in9.1 mm
06:34 AM 46.7°F8.2°C 46.5°F8.1°C 99% 2.0 mph SE3.2 kmh SE -- 29.75 in1007.5 mb 0.10 in2.5 mm 0.12 in3.0 mm 0.37 in9.4 mm
06:39 AM 46.7°F8.2°C 46.5°F8.1°C 99% 2.0 mph ENE3.2 kmh ENE -- 29.74 in1007.1 mb 0.10 in2.5 mm 0.00 in0.0 mm 0.38 in9.7 mm
06:44 AM 46.6°F8.1°C 46.3°F7.9°C 99% 6.0 mph E9.7 kmh E -- 29.75 in1007.5 mb 0.10 in2.5 mm 0.00 in0.0 mm 0.38 in9.7 mm
06:49 AM 46.6°F8.1°C 46.3°F7.9°C 99% 2.0 mph S3.2 kmh S -- 29.75 in1007.5 mb 0.09 in2.3 mm 0.00 in0.0 mm 0.38 in9.7 mm
06:54 AM 46.6°F8.1°C 46.3°F7.9°C 99% 2.0 mph S3.2 kmh S -- 29.75 in1007.5 mb 0.09 in2.3 mm 0.00 in0.0 mm 0.38 in9.7 mm
06:59 AM 46.5°F8.1°C 46.3°F7.9°C 99% 3.0 mph SSE4.8 kmh SSE -- 29.75 in1007.5 mb 0.10 in2.5 mm 0.12 in3.0 mm 0.39 in9.9 mm
07:04 AM 46.6°F8.1°C 46.3°F7.9°C 99% 2.0 mph SE3.2 kmh SE -- 29.74 in1007.1 mb 0.12 in3.0 mm 0.02 in0.5 mm 0.41 in10.4 mm
07:09 AM 46.6°F8.1°C 46.3°F7.9°C 99% 3.0 mph SE4.8 kmh SE -- 29.75 in1007.5 mb 0.11 in2.8 mm 0.00 in0.0 mm 0.42 in10.7 mm
07:14 AM 46.6°F8.1°C 46.3°F7.9°C 99% 2.0 mph S3.2 kmh S -- 29.73 in1006.8 mb 0.12 in3.0 mm 0.12 in3.0 mm 0.43 in10.9 mm
07:19 AM 46.6°F8.1°C 46.3°F7.9°C 99% 2.0 mph S3.2 kmh S -- 29.74 in1007.1 mb 0.08 in2.0 mm 0.00 in0.0 mm 0.44 in11.2 mm
07:24 AM 46.7°F8.2°C 46.5°F8.1°C 99% Calm Calm -- 29.74 in1007.1 mb 0.09 in2.3 mm 0.12 in3.0 mm 0.45 in11.4 mm
07:29 AM 46.6°F8.1°C 46.3°F7.9°C 99% 2.0 mph SSE3.2 kmh SSE -- 29.73 in1006.8 mb 0.08 in2.0 mm 0.00 in0.0 mm 0.46 in11.7 mm
07:34 AM 46.6°F8.1°C 46.3°F7.9°C 99% 1.0 mph SSE1.6 kmh SSE -- 29.74 in1007.1 mb 0.10 in2.5 mm 0.24 in6.1 mm 0.48 in12.2 mm
07:39 AM 46.6°F8.1°C 46.3°F7.9°C 99% 2.0 mph SSE3.2 kmh SSE -- 29.74 in1007.1 mb 0.11 in2.8 mm 0.12 in3.0 mm 0.49 in12.4 mm
07:44 AM 46.8°F8.2°C 46.5°F8.1°C 99% Calm Calm -- 29.74 in1007.1 mb 0.13 in3.3 mm 0.24 in6.1 mm 0.51 in13.0 mm
07:49 AM 46.8°F8.2°C 46.5°F8.1°C 99% 2.0 mph E3.2 kmh E -- 29.74 in1007.1 mb 0.14 in3.6 mm 0.12 in3.0 mm 0.53 in13.5 mm
07:54 AM 46.8°F8.2°C 46.5°F8.1°C 99% 2.0 mph SSE3.2 kmh SSE -- 29.74 in1007.1 mb 0.16 in4.1 mm 0.24 in6.1 mm 0.55 in14.0 mm
07:59 AM 46.8°F8.2°C 46.5°F8.1°C 99% Calm Calm -- 29.72 in1006.4 mb 0.16 in4.1 mm 0.00 in0.0 mm 0.58 in14.7 mm
08:04 AM 46.8°F8.2°C 46.5°F8.1°C 99% 2.0 mph E3.2 kmh E -- 29.71 in1006.1 mb 0.17 in4.3 mm 0.01 in0.3 mm 0.59 in15.0 mm
08:09 AM 46.7°F8.2°C 46.5°F8.1°C 99% 1.0 mph SE1.6 kmh SE -- 29.71 in1006.1 mb 0.17 in4.3 mm 0.00 in0.0 mm 0.60 in15.2 mm
08:14 AM 46.8°F8.2°C 46.5°F8.1°C 99% Calm Calm -- 29.71 in1006.1 mb 0.17 in4.3 mm 0.00 in0.0 mm 0.60 in15.2 mm
08:19 AM 46.8°F8.2°C 46.5°F8.1°C 99% 4.0 mph ESE6.4 kmh ESE -- 29.71 in1006.1 mb 0.17 in4.3 mm 0.00 in0.0 mm 0.63 in16.0 mm
08:24 AM 46.9°F8.3°C 46.7°F8.2°C 99% 4.0 mph ESE6.4 kmh ESE -- 29.71 in1006.1 mb 0.19 in4.8 mm 0.24 in6.1 mm 0.65 in16.5 mm
08:29 AM 46.8°F8.2°C 46.5°F8.1°C 99% 2.0 mph SE3.2 kmh SE -- 29.70 in1005.8 mb 0.16 in4.1 mm 0.00 in0.0 mm 0.65 in16.5 mm
08:34 AM 46.8°F8.2°C 46.5°F8.1°C 99% Calm Calm -- 29.71 in1006.1 mb 0.17 in4.3 mm 0.12 in3.0 mm 0.66 in16.8 mm
08:39 AM 46.8°F8.2°C 46.5°F8.1°C 99% 1.0 mph S1.6 kmh S -- 29.72 in1006.4 mb 0.14 in3.6 mm 0.00 in0.0 mm 0.66 in16.8 mm
08:44 AM 46.9°F8.3°C 46.7°F8.2°C 99% Calm Calm -- 29.72 in1006.4 mb 0.14 in3.6 mm 0.00 in0.0 mm 0.66 in16.8 mm
08:49 AM 47.0°F8.3°C 46.7°F8.2°C 99% 1.0 mph SW1.6 kmh SW -- 29.73 in1006.8 mb 0.09 in2.3 mm 0.00 in0.0 mm 0.66 in16.8 mm
08:54 AM 47.0°F8.3°C 46.7°F8.2°C 99% Calm Calm -- 29.73 in1006.8 mb 0.09 in2.3 mm 0.00 in0.0 mm 0.66 in16.8 mm
08:59 AM 47.0°F8.3°C 46.7°F8.2°C 99% 1.0 mph SSW1.6 kmh SSW -- 29.74 in1007.1 mb 0.07 in1.8 mm 0.00 in0.0 mm 0.67 in17.0 mm
09:04 AM 47.2°F8.4°C 46.8°F8.2°C 99% Calm Calm -- 29.74 in1007.1 mb 0.07 in1.8 mm 0.00 in0.0 mm 0.67 in17.0 mm
09:09 AM 47.3°F8.5°C 47.0°F8.3°C 99% Calm Calm -- 29.73 in1006.8 mb 0.06 in1.5 mm 0.00 in0.0 mm 0.68 in17.3 mm
09:14 AM 47.3°F8.5°C 47.0°F8.3°C 99% Calm Calm -- 29.72 in1006.4 mb 0.06 in1.5 mm 0.00 in0.0 mm 0.68 in17.3 mm
09:19 AM 47.5°F8.6°C 47.2°F8.4°C 99% 2.0 mph ESE3.2 kmh ESE -- 29.72 in1006.4 mb 0.03 in0.8 mm 0.00 in0.0 mm 0.68 in17.3 mm
09:24 AM 47.6°F8.7°C 47.4°F8.6°C 99% 2.0 mph ENE3.2 kmh ENE -- 29.70 in1005.8 mb 0.03 in0.8 mm 0.00 in0.0 mm 0.68 in17.3 mm
09:29 AM 47.8°F8.8°C 47.6°F8.7°C 99% Calm Calm -- 29.68 in1005.1 mb 0.02 in0.5 mm 0.00 in0.0 mm 0.68 in17.3 mm
09:34 AM 48.0°F8.9°C 47.7°F8.7°C 99% Calm Calm -- 29.70 in1005.8 mb 0.02 in0.5 mm 0.00 in0.0 mm 0.68 in17.3 mm
09:39 AM 47.9°F8.8°C 47.6°F8.7°C 99% Calm Calm -- 29.69 in1005.4 mb 0.02 in0.5 mm 0.00 in0.0 mm 0.68 in17.3 mm
09:44 AM 48.0°F8.9°C 47.7°F8.7°C 99% Calm Calm -- 29.69 in1005.4 mb 0.02 in0.5 mm 0.00 in0.0 mm 0.68 in17.3 mm
09:49 AM 48.0°F8.9°C 47.7°F8.7°C 99% Calm Calm -- 29.69 in1005.4 mb 0.01 in0.3 mm 0.00 in0.0 mm 0.68 in17.3 mm
09:54 AM 48.1°F8.9°C 47.7°F8.7°C 99% 2.0 mph E3.2 kmh E -- 29.69 in1005.4 mb 0.01 in0.3 mm 0.00 in0.0 mm 0.68 in17.3 mm
09:59 AM 48.0°F8.9°C 47.7°F8.7°C 99% 2.0 mph NE3.2 kmh NE -- 29.69 in1005.4 mb 0.01 in0.3 mm 0.00 in0.0 mm 0.68 in17.3 mm
10:04 AM 47.9°F8.8°C 47.6°F8.7°C 99% 2.0 mph NNE3.2 kmh NNE -- 29.69 in1005.4 mb 0.01 in0.3 mm 0.00 in0.0 mm 0.68 in17.3 mm
10:09 AM 47.8°F8.8°C 47.6°F8.7°C 99% 2.0 mph ESE3.2 kmh ESE -- 29.69 in1005.4 mb 0.00 in0.0 mm 0.00 in0.0 mm 0.68 in17.3 mm
10:14 AM 47.8°F8.8°C 47.6°F8.7°C 99% 3.0 mph E4.8 kmh E -- 29.69 in1005.4 mb 0.00 in0.0 mm 0.00 in0.0 mm 0.68 in17.3 mm
10:19 AM 47.9°F8.8°C 47.6°F8.7°C 99% 3.0 mph NNE4.8 kmh NNE -- 29.69 in1005.4 mb 0.00 in0.0 mm 0.00 in0.0 mm 0.68 in17.3 mm
10:24 AM 47.7°F8.7°C 47.4°F8.6°C 99% 2.0 mph N3.2 kmh N -- 29.69 in1005.4 mb 0.00 in0.0 mm 0.00 in0.0 mm 0.68 in17.3 mm
10:29 AM 47.7°F8.7°C 47.4°F8.6°C 99% 2.0 mph N3.2 kmh N -- 29.68 in1005.1 mb 0.00 in0.0 mm 0.00 in0.0 mm 0.68 in17.3 mm
10:34 AM 47.9°F8.8°C 47.6°F8.7°C 99% 2.0 mph NE3.2 kmh NE -- 29.68 in1005.1 mb 0.00 in0.0 mm 0.00 in0.0 mm 0.68 in17.3 mm
10:39 AM 47.9°F8.8°C 47.6°F8.7°C 99% Calm Calm -- 29.67 in1004.7 mb 0.01 in0.3 mm 0.12 in3.0 mm 0.69 in17.5 mm
10:44 AM 48.2°F9.0°C 47.9°F8.8°C 99% 2.0 mph ESE3.2 kmh ESE -- 29.67 in1004.7 mb 0.01 in0.3 mm 0.00 in0.0 mm 0.69 in17.5 mm
10:49 AM 48.4°F9.1°C 48.1°F8.9°C 99% Calm Calm -- 29.67 in1004.7 mb 0.01 in0.3 mm 0.00 in0.0 mm 0.69 in17.5 mm
10:54 AM 48.5°F9.2°C 48.3°F9.1°C 99% Calm Calm -- 29.67 in1004.7 mb 0.01 in0.3 mm 0.00 in0.0 mm 0.69 in17.5 mm
10:59 AM 48.5°F9.2°C 48.3°F9.1°C 99% 1.0 mph SE1.6 kmh SE -- 29.67 in1004.7 mb 0.01 in0.3 mm 0.00 in0.0 mm 0.69 in17.5 mm
11:04 AM 48.5°F9.2°C 48.3°F9.1°C 99% 1.0 mph SE1.6 kmh SE -- 29.66 in1004.4 mb 0.01 in0.3 mm 0.00 in0.0 mm 0.69 in17.5 mm
11:09 AM 48.3°F9.1°C 48.1°F8.9°C 99% 2.0 mph NW3.2 kmh NW -- 29.66 in1004.4 mb 0.01 in0.3 mm 0.00 in0.0 mm 0.69 in17.5 mm
11:14 AM 48.5°F9.2°C 48.3°F9.1°C 99% 1.0 mph SE1.6 kmh SE -- 29.66 in1004.4 mb 0.01 in0.3 mm 0.00 in0.0 mm 0.69 in17.5 mm
11:19 AM 48.8°F9.3°C 48.5°F9.2°C 99% Calm Calm -- 29.65 in1004.1 mb 0.01 in0.3 mm 0.00 in0.0 mm 0.69 in17.5 mm
11:24 AM 49.0°F9.4°C 48.6°F9.2°C 99% 1.0 mph SE1.6 kmh SE -- 29.64 in1003.7 mb 0.01 in0.3 mm 0.00 in0.0 mm 0.69 in17.5 mm
11:29 AM 49.2°F9.6°C 49.0°F9.4°C 99% Calm Calm -- 29.64 in1003.7 mb 0.01 in0.3 mm 0.00 in0.0 mm 0.69 in17.5 mm
11:34 AM 49.1°F9.5°C 48.8°F9.3°C 99% 1.0 mph NW1.6 kmh NW -- 29.63 in1003.4 mb 0.01 in0.3 mm 0.00 in0.0 mm 0.69 in17.5 mm
11:39 AM 49.0°F9.4°C 48.4°F9.1°C 98% 2.0 mph E3.2 kmh E -- 29.63 in1003.4 mb 0.00 in0.0 mm 0.00 in0.0 mm 0.69 in17.5 mm
11:44 AM 49.1°F9.5°C 48.6°F9.2°C 98% 2.0 mph E3.2 kmh E -- 29.64 in1003.7 mb 0.00 in0.0 mm 0.00 in0.0 mm 0.69 in17.5 mm
11:49 AM 49.1°F9.5°C 48.6°F9.2°C 98% 3.0 mph NNW4.8 kmh NNW -- 29.64 in1003.7 mb 0.00 in0.0 mm 0.00 in0.0 mm 0.69 in17.5 mm
11:54 AM 48.9°F9.4°C 48.4°F9.1°C 98% 2.0 mph N3.2 kmh N -- 29.63 in1003.4 mb 0.00 in0.0 mm 0.00 in0.0 mm 0.69 in17.5 mm
11:59 AM 49.0°F9.4°C 48.4°F9.1°C 98% 1.0 mph SSE1.6 kmh SSE -- 29.62 in1003.0 mb 0.00 in0.0 mm 0.00 in0.0 mm 0.69 in17.5 mm
12:04 PM 49.0°F9.4°C 48.4°F9.1°C 98% 2.0 mph ENE3.2 kmh ENE -- 29.62 in1003.0 mb 0.00 in0.0 mm 0.00 in0.0 mm 0.69 in17.5 mm
12:09 PM 49.0°F9.4°C 48.4°F9.1°C 98% Calm Calm -- 29.61 in1002.7 mb 0.00 in0.0 mm 0.00 in0.0 mm 0.69 in17.5 mm
12:14 PM 48.8°F9.3°C 48.2°F9.0°C 98% 2.0 mph NNE3.2 kmh NNE -- 29.61 in1002.7 mb 0.00 in0.0 mm 0.00 in0.0 mm 0.69 in17.5 mm
12:19 PM 48.9°F9.4°C 48.4°F9.1°C 98% 1.0 mph SE1.6 kmh SE -- 29.60 in1002.4 mb 0.00 in0.0 mm 0.00 in0.0 mm 0.69 in17.5 mm
12:24 PM 48.8°F9.3°C 48.2°F9.0°C 98% 2.0 mph N3.2 kmh N -- 29.60 in1002.4 mb 0.00 in0.0 mm 0.00 in0.0 mm 0.69 in17.5 mm
12:29 PM 48.9°F9.4°C 48.4°F9.1°C 98% 2.0 mph N3.2 kmh N -- 29.59 in1002.0 mb 0.00 in0.0 mm 0.00 in0.0 mm 0.69 in17.5 mm
12:34 PM 49.2°F9.6°C 48.7°F9.3°C 98% 1.0 mph SE1.6 kmh SE -- 29.59 in1002.0 mb 0.00 in0.0 mm 0.00 in0.0 mm 0.69 in17.5 mm
12:39 PM 49.3°F9.6°C 48.7°F9.3°C 98% 2.0 mph E3.2 kmh E -- 29.58 in1001.7 mb 0.00 in0.0 mm 0.00 in0.0 mm 0.69 in17.5 mm
12:44 PM 49.1°F9.5°C 48.6°F9.2°C 98% Calm Calm -- 29.58 in1001.7 mb 0.00 in0.0 mm 0.00 in0.0 mm 0.69 in17.5 mm
12:49 PM 49.2°F9.6°C 48.7°F9.3°C 98% 4.0 mph NW6.4 kmh NW -- 29.58 in1001.7 mb 0.00 in0.0 mm 0.00 in0.0 mm 0.69 in17.5 mm
12:54 PM 49.1°F9.5°C 48.6°F9.2°C 98% 2.0 mph WNW3.2 kmh WNW -- 29.58 in1001.7 mb 0.00 in0.0 mm 0.00 in0.0 mm 0.69 in17.5 mm
12:59 PM 49.1°F9.5°C 48.6°F9.2°C 98% 2.0 mph NE3.2 kmh NE -- 29.57 in1001.4 mb 0.00 in0.0 mm 0.00 in0.0 mm 0.69 in17.5 mm
01:04 PM 49.1°F9.5°C 48.6°F9.2°C 98% 1.0 mph SE1.6 kmh SE -- 29.57 in1001.4 mb 0.00 in0.0 mm 0.00 in0.0 mm 0.69 in17.5 mm
01:09 PM 49.4°F9.7°C 48.9°F9.4°C 98% 1.0 mph ENE1.6 kmh ENE -- 29.56 in1001.0 mb 0.00 in0.0 mm 0.00 in0.0 mm 0.69 in17.5 mm
01:14 PM 49.4°F9.7°C 48.9°F9.4°C 98% Calm Calm -- 29.56 in1001.0 mb 0.00 in0.0 mm 0.00 in0.0 mm 0.69 in17.5 mm
01:19 PM 49.5°F9.7°C 48.9°F9.4°C 98% 1.0 mph SE1.6 kmh SE -- 29.56 in1001.0 mb 0.00 in0.0 mm 0.00 in0.0 mm 0.69 in17.5 mm
01:24 PM 49.5°F9.7°C 48.9°F9.4°C 98% Calm Calm -- 29.56 in1001.0 mb 0.00 in0.0 mm 0.00 in0.0 mm 0.69 in17.5 mm
01:29 PM 49.7°F9.8°C 49.1°F9.5°C 98% 2.0 mph NE3.2 kmh NE -- 29.56 in1001.0 mb 0.00 in0.0 mm 0.00 in0.0 mm 0.69 in17.5 mm
01:34 PM 49.7°F9.8°C 49.1°F9.5°C 98% 1.0 mph N1.6 kmh N -- 29.56 in1001.0 mb 0.00 in0.0 mm 0.00 in0.0 mm 0.69 in17.5 mm
01:39 PM 49.7°F9.8°C 49.1°F9.5°C 98% Calm Calm -- 29.56 in1001.0 mb 0.00 in0.0 mm 0.00 in0.0 mm 0.69 in17.5 mm
01:44 PM 49.7°F9.8°C 49.1°F9.5°C 98% 2.0 mph WSW3.2 kmh WSW -- 29.56 in1001.0 mb 0.01 in0.3 mm 0.12 in3.0 mm 0.70 in17.8 mm
01:49 PM 49.6°F9.8°C 49.1°F9.5°C 98% Calm Calm -- 29.56 in1001.0 mb 0.01 in0.3 mm 0.00 in0.0 mm 0.70 in17.8 mm
01:54 PM 49.7°F9.8°C 49.1°F9.5°C 98% 2.0 mph SW3.2 kmh SW -- 29.57 in1001.4 mb 0.01 in0.3 mm 0.00 in0.0 mm 0.70 in17.8 mm
01:59 PM 49.8°F9.9°C 49.3°F9.6°C 98% 1.0 mph E1.6 kmh E -- 29.57 in1001.4 mb 0.01 in0.3 mm 0.00 in0.0 mm 0.70 in17.8 mm
02:04 PM 49.9°F9.9°C 49.3°F9.6°C 98% 1.0 mph E1.6 kmh E -- 29.56 in1001.0 mb 0.01 in0.3 mm 0.00 in0.0 mm 0.70 in17.8 mm
02:09 PM 49.8°F9.9°C 49.3°F9.6°C 98% Calm Calm -- 29.56 in1001.0 mb 0.01 in0.3 mm 0.00 in0.0 mm 0.70 in17.8 mm
02:14 PM 49.9°F9.9°C 49.3°F9.6°C 98% Calm Calm -- 29.56 in1001.0 mb 0.01 in0.3 mm 0.00 in0.0 mm 0.70 in17.8 mm
02:19 PM 49.9°F9.9°C 49.3°F9.6°C 98% Calm Calm -- 29.56 in1001.0 mb 0.01 in0.3 mm 0.00 in0.0 mm 0.70 in17.8 mm
02:24 PM 50.0°F10.0°C 49.5°F9.7°C 98% Calm Calm -- 29.56 in1001.0 mb 0.01 in0.3 mm 0.00 in0.0 mm 0.70 in17.8 mm
02:29 PM 50.1°F10.1°C 49.6°F9.8°C 98% Calm Calm -- 29.56 in1001.0 mb 0.01 in0.3 mm 0.00 in0.0 mm 0.70 in17.8 mm
02:34 PM 50.2°F10.1°C 49.6°F9.8°C 98% Calm Calm -- 29.56 in1001.0 mb 0.01 in0.3 mm 0.00 in0.0 mm 0.70 in17.8 mm
02:39 PM 50.5°F10.3°C 50.0°F10.0°C 98% 2.0 mph SW3.2 kmh SW -- 29.56 in1001.0 mb 0.00 in0.0 mm 0.00 in0.0 mm 0.70 in17.8 mm
02:44 PM 50.7°F10.4°C 50.2°F10.1°C 98% 3.0 mph N4.8 kmh N -- 29.56 in1001.0 mb 0.00 in0.0 mm 0.00 in0.0 mm 0.70 in17.8 mm
02:49 PM 51.1°F10.6°C 50.5°F10.3°C 98% 3.0 mph NNW4.8 kmh NNW -- 29.55 in1000.7 mb 0.00 in0.0 mm 0.00 in0.0 mm 0.70 in17.8 mm
02:54 PM 51.5°F10.8°C 50.9°F10.5°C 98% 4.0 mph NNE6.4 kmh NNE -- 29.55 in1000.7 mb 0.00 in0.0 mm 0.00 in0.0 mm 0.70 in17.8 mm
02:59 PM 51.4°F10.8°C 50.6°F10.3°C 97% 4.0 mph NW6.4 kmh NW -- 29.54 in1000.3 mb 0.00 in0.0 mm 0.00 in0.0 mm 0.70 in17.8 mm
03:04 PM 51.3°F10.7°C 50.4°F10.2°C 97% 1.0 mph SW1.6 kmh SW -- 29.55 in1000.7 mb 0.00 in0.0 mm 0.00 in0.0 mm 0.70 in17.8 mm
03:09 PM 51.6°F10.9°C 50.8°F10.4°C 97% 3.0 mph NNW4.8 kmh NNW -- 29.54 in1000.3 mb 0.00 in0.0 mm 0.00 in0.0 mm 0.70 in17.8 mm
03:14 PM 51.6°F10.9°C 50.8°F10.4°C 97% 2.0 mph ENE3.2 kmh ENE -- 29.54 in1000.3 mb 0.00 in0.0 mm 0.00 in0.0 mm 0.70 in17.8 mm
03:19 PM 51.7°F10.9°C 50.8°F10.4°C 97% 7.0 mph WNW11.3 kmh WNW -- 29.54 in1000.3 mb 0.00 in0.0 mm 0.00 in0.0 mm 0.70 in17.8 mm
03:24 PM 51.6°F10.9°C 50.8°F10.4°C 97% 2.0 mph ENE3.2 kmh ENE -- 29.55 in1000.7 mb 0.00 in0.0 mm 0.00 in0.0 mm 0.70 in17.8 mm
03:29 PM 51.6°F10.9°C 50.8°F10.4°C 97% 5.0 mph NNW8.0 kmh NNW -- 29.54 in1000.3 mb 0.00 in0.0 mm 0.00 in0.0 mm 0.70 in17.8 mm
03:34 PM 51.7°F10.9°C 50.8°F10.4°C 97% 2.0 mph W3.2 kmh W -- 29.54 in1000.3 mb 0.00 in0.0 mm 0.00 in0.0 mm 0.70 in17.8 mm
03:39 PM 51.7°F10.9°C 50.8°F10.4°C 97% 7.0 mph 11.3 kmh -- 29.54 in1000.3 mb 0.00 in0.0 mm 0.00 in0.0 mm 0.70 in17.8 mm
03:44 PM 51.8°F11.0°C 51.0°F10.6°C 97% 3.0 mph N4.8 kmh N -- 29.54 in1000.3 mb 0.00 in0.0 mm 0.00 in0.0 mm 0.70 in17.8 mm
03:49 PM 51.8°F11.0°C 51.0°F10.6°C 97% 3.0 mph NW4.8 kmh NW -- 29.54 in1000.3 mb 0.00 in0.0 mm 0.00 in0.0 mm 0.70 in17.8 mm
03:54 PM 51.7°F10.9°C 50.5°F10.3°C 96% 3.0 mph WNW4.8 kmh WNW -- 29.54 in1000.3 mb 0.00 in0.0 mm 0.00 in0.0 mm 0.70 in17.8 mm
03:59 PM 51.7°F10.9°C 50.5°F10.3°C 96% 2.0 mph NE3.2 kmh NE -- 29.54 in1000.3 mb 0.00 in0.0 mm 0.00 in0.0 mm 0.70 in17.8 mm
04:04 PM 51.9°F11.1°C 50.9°F10.5°C 96% 1.0 mph WSW1.6 kmh WSW -- 29.54 in1000.3 mb 0.00 in0.0 mm 0.00 in0.0 mm 0.70 in17.8 mm
04:09 PM 51.8°F11.0°C 50.7°F10.4°C 96% 2.0 mph WSW3.2 kmh WSW -- 29.54 in1000.3 mb 0.00 in0.0 mm 0.00 in0.0 mm 0.70 in17.8 mm
04:14 PM 51.9°F11.1°C 50.9°F10.5°C 96% 2.0 mph N3.2 kmh N -- 29.54 in1000.3 mb 0.00 in0.0 mm 0.00 in0.0 mm 0.70 in17.8 mm
04:19 PM 52.0°F11.1°C 50.9°F10.5°C 96% 4.0 mph WSW6.4 kmh WSW -- 29.55 in1000.7 mb 0.00 in0.0 mm 0.00 in0.0 mm 0.70 in17.8 mm
04:24 PM 52.1°F11.2°C 51.0°F10.6°C 96% 3.0 mph SSW4.8 kmh SSW -- 29.54 in1000.3 mb 0.00 in0.0 mm 0.00 in0.0 mm 0.70 in17.8 mm
04:29 PM 52.1°F11.2°C 51.0°F10.6°C 96% 3.0 mph N4.8 kmh N -- 29.54 in1000.3 mb 0.00 in0.0 mm 0.00 in0.0 mm 0.70 in17.8 mm
04:34 PM 52.0°F11.1°C 50.9°F10.5°C 96% 2.0 mph N3.2 kmh N -- 29.54 in1000.3 mb 0.00 in0.0 mm 0.00 in0.0 mm 0.70 in17.8 mm
04:39 PM 52.0°F11.1°C 50.9°F10.5°C 96% 2.0 mph NNW3.2 kmh NNW -- 29.54 in1000.3 mb 0.00 in0.0 mm 0.00 in0.0 mm 0.70 in17.8 mm
04:44 PM 51.9°F11.1°C 50.9°F10.5°C 96% 2.0 mph S3.2 kmh S -- 29.54 in1000.3 mb 0.00 in0.0 mm 0.00 in0.0 mm 0.70 in17.8 mm
04:49 PM 51.8°F11.0°C 50.7°F10.4°C 96% 5.0 mph WSW8.0 kmh WSW -- 29.53 in1000.0 mb 0.00 in0.0 mm 0.00 in0.0 mm 0.70 in17.8 mm
04:54 PM 51.8°F11.0°C 50.7°F10.4°C 96% 2.0 mph NW3.2 kmh NW -- 29.54 in1000.3 mb 0.00 in0.0 mm 0.00 in0.0 mm 0.70 in17.8 mm
04:59 PM 51.6°F10.9°C 50.5°F10.3°C 96% Calm Calm -- 29.54 in1000.3 mb 0.00 in0.0 mm 0.00 in0.0 mm 0.70 in17.8 mm
05:04 PM 51.4°F10.8°C 50.3°F10.2°C 96% Calm Calm -- 29.54 in1000.3 mb 0.00 in0.0 mm 0.00 in0.0 mm 0.70 in17.8 mm
05:09 PM 51.4°F10.8°C 50.3°F10.2°C 96% 1.0 mph S1.6 kmh S -- 29.54 in1000.3 mb 0.00 in0.0 mm 0.00 in0.0 mm 0.70 in17.8 mm
05:14 PM 51.2°F10.7°C 50.1°F10.1°C 96% Calm Calm -- 29.54 in1000.3 mb 0.00 in0.0 mm 0.00 in0.0 mm 0.70 in17.8 mm
05:19 PM 50.8°F10.4°C 49.6°F9.8°C 96% 1.0 mph SE1.6 kmh SE -- 29.54 in1000.3 mb 0.00 in0.0 mm 0.00 in0.0 mm 0.70 in17.8 mm
05:24 PM 50.7°F10.4°C 49.6°F9.8°C 96% 1.0 mph SSW1.6 kmh SSW -- 29.54 in1000.3 mb 0.00 in0.0 mm 0.00 in0.0 mm 0.70 in17.8 mm
05:29 PM 50.4°F10.2°C 49.2°F9.6°C 96% 2.0 mph WSW3.2 kmh WSW -- 29.55 in1000.7 mb 0.00 in0.0 mm 0.00 in0.0 mm 0.70 in17.8 mm
05:34 PM 50.3°F10.2°C 49.2°F9.6°C 96% 1.0 mph S1.6 kmh S -- 29.56 in1001.0 mb 0.00 in0.0 mm 0.00 in0.0 mm 0.70 in17.8 mm
05:39 PM 50.2°F10.1°C 49.4°F9.7°C 97% 1.0 mph NW1.6 kmh NW -- 29.56 in1001.0 mb 0.00 in0.0 mm 0.00 in0.0 mm 0.70 in17.8 mm
05:44 PM 50.1°F10.1°C 49.4°F9.7°C 97% 1.0 mph E1.6 kmh E -- 29.57 in1001.4 mb 0.00 in0.0 mm 0.00 in0.0 mm 0.70 in17.8 mm
05:49 PM 50.0°F10.0°C 49.2°F9.6°C 97% Calm Calm -- 29.57 in1001.4 mb 0.00 in0.0 mm 0.00 in0.0 mm 0.70 in17.8 mm
05:54 PM 50.1°F10.1°C 49.4°F9.7°C 97% 2.0 mph N3.2 kmh N -- 29.58 in1001.7 mb 0.00 in0.0 mm 0.00 in0.0 mm 0.70 in17.8 mm
05:59 PM 49.8°F9.9°C 49.0°F9.4°C 97% 6.0 mph N9.7 kmh N -- 29.58 in1001.7 mb 0.00 in0.0 mm 0.00 in0.0 mm 0.70 in17.8 mm
06:04 PM 49.8°F9.9°C 49.3°F9.6°C 98% 3.0 mph W4.8 kmh W -- 29.59 in1002.0 mb 0.00 in0.0 mm 0.00 in0.0 mm 0.70 in17.8 mm
06:09 PM 49.6°F9.8°C 49.1°F9.5°C 98% 2.0 mph N3.2 kmh N -- 29.59 in1002.0 mb 0.00 in0.0 mm 0.00 in0.0 mm 0.70 in17.8 mm
06:14 PM 49.7°F9.8°C 49.1°F9.5°C 98% 1.0 mph N1.6 kmh N -- 29.59 in1002.0 mb 0.00 in0.0 mm 0.00 in0.0 mm 0.70 in17.8 mm
06:19 PM 49.6°F9.8°C 49.1°F9.5°C 98% 5.0 mph WNW8.0 kmh WNW -- 29.58 in1001.7 mb 0.00 in0.0 mm 0.00 in0.0 mm 0.70 in17.8 mm
06:24 PM 49.6°F9.8°C 49.1°F9.5°C 98% 3.0 mph WNW4.8 kmh WNW -- 29.58 in1001.7 mb 0.00 in0.0 mm 0.00 in0.0 mm 0.70 in17.8 mm
06:29 PM 49.5°F9.7°C 48.9°F9.4°C 98% 1.0 mph SW1.6 kmh SW -- 29.59 in1002.0 mb 0.00 in0.0 mm 0.00 in0.0 mm 0.70 in17.8 mm
06:34 PM 49.5°F9.7°C 48.9°F9.4°C 98% 5.0 mph SW8.0 kmh SW -- 29.59 in1002.0 mb 0.00 in0.0 mm 0.00 in0.0 mm 0.70 in17.8 mm
06:39 PM 49.5°F9.7°C 48.9°F9.4°C 98% 3.0 mph NNW4.8 kmh NNW -- 29.59 in1002.0 mb 0.00 in0.0 mm 0.00 in0.0 mm 0.70 in17.8 mm
06:44 PM 49.5°F9.7°C 48.9°F9.4°C 98% 2.0 mph SW3.2 kmh SW -- 29.59 in1002.0 mb 0.00 in0.0 mm 0.00 in0.0 mm 0.70 in17.8 mm
06:49 PM 49.5°F9.7°C 48.9°F9.4°C 98% 2.0 mph WNW3.2 kmh WNW -- 29.58 in1001.7 mb 0.00 in0.0 mm 0.00 in0.0 mm 0.70 in17.8 mm
06:54 PM 49.4°F9.7°C 48.9°F9.4°C 98% 4.0 mph W6.4 kmh W -- 29.58 in1001.7 mb 0.00 in0.0 mm 0.00 in0.0 mm 0.70 in17.8 mm
06:59 PM 49.4°F9.7°C 48.9°F9.4°C 98% 1.0 mph ESE1.6 kmh ESE -- 29.58 in1001.7 mb 0.00 in0.0 mm 0.00 in0.0 mm 0.70 in17.8 mm
07:04 PM 49.4°F9.7°C 48.9°F9.4°C 98% Calm Calm -- 29.59 in1002.0 mb 0.00 in0.0 mm 0.00 in0.0 mm 0.70 in17.8 mm
07:09 PM 49.4°F9.7°C 48.9°F9.4°C 98% 3.0 mph NE4.8 kmh NE -- 29.59 in1002.0 mb 0.00 in0.0 mm 0.00 in0.0 mm 0.70 in17.8 mm
07:14 PM 49.4°F9.7°C 48.9°F9.4°C 98% 4.0 mph WSW6.4 kmh WSW -- 29.59 in1002.0 mb 0.00 in0.0 mm 0.00 in0.0 mm 0.70 in17.8 mm
07:19 PM 49.3°F9.6°C 48.7°F9.3°C 98% 3.0 mph WSW4.8 kmh WSW -- 29.60 in1002.4 mb 0.00 in0.0 mm 0.00 in0.0 mm 0.70 in17.8 mm
07:24 PM 49.2°F9.6°C 48.7°F9.3°C 98% 3.0 mph SW4.8 kmh SW -- 29.59 in1002.0 mb 0.00 in0.0 mm 0.00 in0.0 mm 0.70 in17.8 mm
07:29 PM 49.3°F9.6°C 48.7°F9.3°C 98% 4.0 mph WSW6.4 kmh WSW -- 29.59 in1002.0 mb 0.00 in0.0 mm 0.00 in0.0 mm 0.70 in17.8 mm
07:34 PM 49.3°F9.6°C 48.7°F9.3°C 98% 1.0 mph S1.6 kmh S -- 29.59 in1002.0 mb 0.00 in0.0 mm 0.00 in0.0 mm 0.70 in17.8 mm
07:39 PM 49.4°F9.7°C 48.9°F9.4°C 98% 3.0 mph E4.8 kmh E -- 29.59 in1002.0 mb 0.00 in0.0 mm 0.00 in0.0 mm 0.70 in17.8 mm
07:44 PM 49.3°F9.6°C 49.0°F9.4°C 99% 2.0 mph S3.2 kmh S -- 29.59 in1002.0 mb 0.00 in0.0 mm 0.00 in0.0 mm 0.70 in17.8 mm
07:49 PM 49.1°F9.5°C 48.6°F9.2°C 98% 1.0 mph SSE1.6 kmh SSE -- 29.59 in1002.0 mb 0.00 in0.0 mm 0.00 in0.0 mm 0.70 in17.8 mm
07:54 PM 49.0°F9.4°C 48.4°F9.1°C 98% Calm Calm -- 29.59 in1002.0 mb 0.00 in0.0 mm 0.00 in0.0 mm 0.70 in17.8 mm
07:59 PM 48.7°F9.3°C 48.2°F9.0°C 98% 2.0 mph SSE3.2 kmh SSE -- 29.59 in1002.0 mb 0.00 in0.0 mm 0.00 in0.0 mm 0.70 in17.8 mm
08:04 PM 48.4°F9.1°C 47.8°F8.8°C 98% Calm Calm -- 29.59 in1002.0 mb 0.00 in0.0 mm 0.00 in0.0 mm 0.70 in17.8 mm
08:09 PM 48.1°F8.9°C 47.5°F8.6°C 98% Calm Calm -- 29.59 in1002.0 mb 0.00 in0.0 mm 0.00 in0.0 mm 0.70 in17.8 mm
08:14 PM 48.0°F8.9°C 47.5°F8.6°C 98% Calm Calm -- 29.58 in1001.7 mb 0.00 in0.0 mm 0.00 in0.0 mm 0.70 in17.8 mm
08:19 PM 47.7°F8.7°C 47.1°F8.4°C 98% Calm Calm -- 29.58 in1001.7 mb 0.00 in0.0 mm 0.00 in0.0 mm 0.70 in17.8 mm
08:24 PM 47.4°F8.6°C 46.9°F8.3°C 98% Calm Calm -- 29.58 in1001.7 mb 0.00 in0.0 mm 0.00 in0.0 mm 0.70 in17.8 mm
08:29 PM 47.2°F8.4°C 46.6°F8.1°C 98% Calm Calm -- 29.59 in1002.0 mb 0.00 in0.0 mm 0.00 in0.0 mm 0.70 in17.8 mm
08:34 PM 46.9°F8.3°C 46.4°F8.0°C 98% Calm Calm -- 29.59 in1002.0 mb 0.00 in0.0 mm 0.00 in0.0 mm 0.70 in17.8 mm
08:39 PM 46.7°F8.2°C 46.2°F7.9°C 98% Calm Calm -- 29.59 in1002.0 mb 0.00 in0.0 mm 0.00 in0.0 mm 0.70 in17.8 mm
08:44 PM 46.5°F8.1°C 46.0°F7.8°C 98% Calm Calm -- 29.59 in1002.0 mb 0.00 in0.0 mm 0.00 in0.0 mm 0.70 in17.8 mm
08:49 PM 46.4°F8.0°C 45.9°F7.7°C 98% Calm Calm -- 29.59 in1002.0 mb 0.00 in0.0 mm 0.00 in0.0 mm 0.70 in17.8 mm
08:54 PM 46.1°F7.8°C 45.5°F7.5°C 98% Calm Calm -- 29.59 in1002.0 mb 0.00 in0.0 mm 0.00 in0.0 mm 0.70 in17.8 mm
08:59 PM 45.9°F7.7°C 45.3°F7.4°C 98% Calm Calm -- 29.59 in1002.0 mb 0.00 in0.0 mm 0.00 in0.0 mm 0.70 in17.8 mm
09:04 PM 45.7°F7.6°C 45.1°F7.3°C 98% Calm Calm -- 29.59 in1002.0 mb 0.00 in0.0 mm 0.00 in0.0 mm 0.70 in17.8 mm
09:09 PM 45.6°F7.6°C 45.1°F7.3°C 98% 1.0 mph S1.6 kmh S -- 29.59 in1002.0 mb 0.00 in0.0 mm 0.00 in0.0 mm 0.70 in17.8 mm
09:14 PM 45.5°F7.5°C 45.0°F7.2°C 98% 2.0 mph WSW3.2 kmh WSW -- 29.59 in1002.0 mb 0.00 in0.0 mm 0.00 in0.0 mm 0.70 in17.8 mm
09:19 PM 45.6°F7.6°C 45.1°F7.3°C 98% Calm Calm -- 29.59 in1002.0 mb 0.00 in0.0 mm 0.00 in0.0 mm 0.70 in17.8 mm
09:24 PM 45.6°F7.6°C 45.1°F7.3°C 98% Calm Calm -- 29.58 in1001.7 mb 0.00 in0.0 mm 0.00 in0.0 mm 0.70 in17.8 mm
09:29 PM 45.4°F7.4°C 44.8°F7.1°C 98% Calm Calm -- 29.59 in1002.0 mb 0.00 in0.0 mm 0.00 in0.0 mm 0.70 in17.8 mm
09:34 PM 45.4°F7.4°C 44.8°F7.1°C 98% 1.0 mph SSW1.6 kmh SSW -- 29.59 in1002.0 mb 0.00 in0.0 mm 0.00 in0.0 mm 0.70 in17.8 mm
09:39 PM 45.4°F7.4°C 44.8°F7.1°C 98% 1.0 mph W1.6 kmh W -- 29.59 in1002.0 mb 0.00 in0.0 mm 0.00 in0.0 mm 0.70 in17.8 mm
09:44 PM 45.4°F7.4°C 44.8°F7.1°C 98% Calm Calm -- 29.59 in1002.0 mb 0.00 in0.0 mm 0.00 in0.0 mm 0.70 in17.8 mm
09:49 PM 45.6°F7.6°C 45.4°F7.4°C 99% 1.0 mph S1.6 kmh S -- 29.58 in1001.7 mb 0.00 in0.0 mm 0.00 in0.0 mm 0.70 in17.8 mm
09:54 PM 45.8°F7.7°C 45.6°F7.6°C 99% 1.0 mph SE1.6 kmh SE -- 29.59 in1002.0 mb 0.00 in0.0 mm 0.00 in0.0 mm 0.70 in17.8 mm
09:59 PM 45.9°F7.7°C 45.6°F7.6°C 99% Calm Calm -- 29.58 in1001.7 mb 0.00 in0.0 mm 0.00 in0.0 mm 0.70 in17.8 mm
10:04 PM 45.9°F7.7°C 45.6°F7.6°C 99% 3.0 mph W4.8 kmh W -- 29.59 in1002.0 mb 0.00 in0.0 mm 0.00 in0.0 mm 0.70 in17.8 mm
10:09 PM 45.9°F7.7°C 45.6°F7.6°C 99% 4.0 mph S6.4 kmh S -- 29.59 in1002.0 mb 0.00 in0.0 mm 0.00 in0.0 mm 0.70 in17.8 mm
10:14 PM 46.1°F7.8°C 45.8°F7.7°C 99% 2.0 mph WSW3.2 kmh WSW -- 29.59 in1002.0 mb 0.00 in0.0 mm 0.00 in0.0 mm 0.70 in17.8 mm
10:19 PM 46.1°F7.8°C 45.8°F7.7°C 99% 2.0 mph WSW3.2 kmh WSW -- 29.59 in1002.0 mb 0.00 in0.0 mm 0.00 in0.0 mm 0.70 in17.8 mm
10:24 PM 46.1°F7.8°C 45.8°F7.7°C 99% 5.0 mph NE8.0 kmh NE -- 29.59 in1002.0 mb 0.00 in0.0 mm 0.00 in0.0 mm 0.70 in17.8 mm
10:29 PM 46.3°F7.9°C 45.7°F7.6°C 98% 2.0 mph ENE3.2 kmh ENE -- 29.59 in1002.0 mb 0.00 in0.0 mm 0.00 in0.0 mm 0.70 in17.8 mm
10:34 PM 46.4°F8.0°C 45.9°F7.7°C 98% Calm Calm -- 29.59 in1002.0 mb 0.00 in0.0 mm 0.00 in0.0 mm 0.70 in17.8 mm
10:39 PM 46.3°F7.9°C 45.4°F7.4°C 97% 3.0 mph SSW4.8 kmh SSW -- 29.59 in1002.0 mb 0.00 in0.0 mm 0.00 in0.0 mm 0.70 in17.8 mm
10:44 PM 46.1°F7.8°C 45.2°F7.3°C 97% 4.0 mph NNW6.4 kmh NNW -- 29.59 in1002.0 mb 0.00 in0.0 mm 0.00 in0.0 mm 0.70 in17.8 mm
10:49 PM 46.0°F7.8°C 44.9°F7.2°C 96% 2.0 mph SE3.2 kmh SE -- 29.59 in1002.0 mb 0.00 in0.0 mm 0.00 in0.0 mm 0.70 in17.8 mm
10:54 PM 46.0°F7.8°C 44.9°F7.2°C 96% 2.0 mph S3.2 kmh S -- 29.59 in1002.0 mb 0.00 in0.0 mm 0.00 in0.0 mm 0.70 in17.8 mm
10:59 PM 45.9°F7.7°C 44.5°F6.9°C 95% 1.0 mph WNW1.6 kmh WNW -- 29.60 in1002.4 mb 0.00 in0.0 mm 0.00 in0.0 mm 0.70 in17.8 mm
11:04 PM 45.9°F7.7°C 44.5°F6.9°C 95% 1.0 mph N1.6 kmh N -- 29.59 in1002.0 mb 0.00 in0.0 mm 0.00 in0.0 mm 0.70 in17.8 mm
11:09 PM 45.8°F7.7°C 44.2°F6.8°C 94% 3.0 mph NW4.8 kmh NW -- 29.59 in1002.0 mb 0.00 in0.0 mm 0.00 in0.0 mm 0.70 in17.8 mm
11:14 PM 45.8°F7.7°C 43.9°F6.6°C 93% 1.0 mph E1.6 kmh E -- 29.59 in1002.0 mb 0.00 in0.0 mm 0.00 in0.0 mm 0.70 in17.8 mm
11:19 PM 45.9°F7.7°C 43.4°F6.3°C 91% 3.0 mph NW4.8 kmh NW -- 29.59 in1002.0 mb 0.00 in0.0 mm 0.00 in0.0 mm 0.70 in17.8 mm
11:24 PM 46.2°F7.9°C 43.1°F6.2°C 89% 6.0 mph NW9.7 kmh NW -- 29.59 in1002.0 mb 0.00 in0.0 mm 0.00 in0.0 mm 0.70 in17.8 mm
11:29 PM 46.3°F7.9°C 42.8°F6.0°C 88% 4.0 mph N6.4 kmh N -- 29.59 in1002.0 mb 0.00 in0.0 mm 0.00 in0.0 mm 0.70 in17.8 mm
11:34 PM 46.2°F7.9°C 42.5°F5.8°C 87% 4.0 mph N6.4 kmh N -- 29.59 in1002.0 mb 0.00 in0.0 mm 0.00 in0.0 mm 0.70 in17.8 mm
11:39 PM 46.2°F7.9°C 42.8°F6.0°C 88% 4.0 mph SSW6.4 kmh SSW -- 29.59 in1002.0 mb 0.00 in0.0 mm 0.00 in0.0 mm 0.70 in17.8 mm
11:44 PM 45.9°F7.7°C 42.2°F5.7°C 87% 2.0 mph NW3.2 kmh NW -- 29.60 in1002.4 mb 0.00 in0.0 mm 0.00 in0.0 mm 0.70 in17.8 mm
11:49 PM 46.2°F7.9°C 42.2°F5.7°C 86% 3.0 mph NW4.8 kmh NW -- 29.60 in1002.4 mb 0.00 in0.0 mm 0.00 in0.0 mm 0.70 in17.8 mm
11:54 PM 46.2°F7.9°C 41.9°F5.5°C 85% 3.0 mph NW4.8 kmh NW -- 29.60 in1002.4 mb 0.00 in0.0 mm 0.00 in0.0 mm 0.43 in10.9 mm
11:55 PM 46.2°F7.9°C 41.9°F5.5°C 85% 1.0 mph SSW1.6 kmh SSW -- 29.60 in1002.4 mb 0.00 in0.0 mm 0.00 in0.0 mm 0.43 in10.9 mm
11:59 PM 46.3°F7.9°C 41.9°F5.5°C 85% 2.0 mph N3.2 kmh N -- 29.60 in1002.4 mb 0.00 in0.0 mm 0.00 in0.0 mm 0.43 in10.9 mm